sensor_id;sensor_type;location;lat;lon;timestamp;temperature;humidity
939;DHT22;456;53.584;9.968;2022-11-21T00:00:26;17.90;21.80
939;DHT22;456;53.584;9.968;2022-11-21T00:02:52;17.80;21.80
939;DHT22;456;53.584;9.968;2022-11-21T00:05:17;17.90;21.70
939;DHT22;456;53.584;9.968;2022-11-21T00:07:43;17.80;21.70
939;DHT22;456;53.584;9.968;2022-11-21T00:10:11;17.90;21.80
939;DHT22;456;53.584;9.968;2022-11-21T00:12:36;17.90;21.70
939;DHT22;456;53.584;9.968;2022-11-21T00:15:02;17.80;21.80
939;DHT22;456;53.584;9.968;2022-11-21T00:17:28;17.80;21.70
939;DHT22;456;53.584;9.968;2022-11-21T00:19:53;17.80;21.60
939;DHT22;456;53.584;9.968;2022-11-21T00:22:19;17.80;21.60
939;DHT22;456;53.584;9.968;2022-11-21T00:24:45;17.80;21.70
939;DHT22;456;53.584;9.968;2022-11-21T00:27:10;17.80;21.70
939;DHT22;456;53.584;9.968;2022-11-21T00:29:36;17.80;21.40
939;DHT22;456;53.584;9.968;2022-11-21T00:32:01;17.80;21.50
939;DHT22;456;53.584;9.968;2022-11-21T00:34:27;17.80;21.60
939;DHT22;456;53.584;9.968;2022-11-21T00:36:52;17.80;21.70
939;DHT22;456;53.584;9.968;2022-11-21T00:39:18;17.80;21.50
939;DHT22;456;53.584;9.968;2022-11-21T00:41:43;17.80;21.70
939;DHT22;456;53.584;9.968;2022-11-21T00:44:09;17.80;21.60
939;DHT22;456;53.584;9.968;2022-11-21T00:46:35;17.80;21.20
939;DHT22;456;53.584;9.968;2022-11-21T00:49:00;17.80;21.50
939;DHT22;456;53.584;9.968;2022-11-21T00:51:26;17.80;21.50
939;DHT22;456;53.584;9.968;2022-11-21T00:53:52;17.80;22.20
939;DHT22;456;53.584;9.968;2022-11-21T00:56:17;17.80;21.50
939;DHT22;456;53.584;9.968;2022-11-21T00:58:43;17.80;21.30
939;DHT22;456;53.584;9.968;2022-11-21T01:01:14;17.80;21.20
939;DHT22;456;53.584;9.968;2022-11-21T01:03:40;17.80;20.90
939;DHT22;456;53.584;9.968;2022-11-21T01:06:08;17.80;21.00
939;DHT22;456;53.584;9.968;2022-11-21T01:08:36;17.80;20.90
939;DHT22;456;53.584;9.968;2022-11-21T01:11:03;17.80;20.90
939;DHT22;456;53.584;9.968;2022-11-21T01:13:29;17.80;20.90
939;DHT22;456;53.584;9.968;2022-11-21T01:15:55;17.80;20.90
939;DHT22;456;53.584;9.968;2022-11-21T01:18:20;17.80;20.90
939;DHT22;456;53.584;9.968;2022-11-21T01:20:46;17.80;21.00
939;DHT22;456;53.584;9.968;2022-11-21T01:23:12;17.80;21.00
939;DHT22;456;53.584;9.968;2022-11-21T01:25:37;17.80;20.90
939;DHT22;456;53.584;9.968;2022-11-21T01:28:03;17.80;21.50
939;DHT22;456;53.584;9.968;2022-11-21T01:30:28;17.80;20.90
939;DHT22;456;53.584;9.968;2022-11-21T01:32:54;17.80;21.10
939;DHT22;456;53.584;9.968;2022-11-21T01:35:19;17.80;21.10
939;DHT22;456;53.584;9.968;2022-11-21T01:37:48;17.80;21.20
939;DHT22;456;53.584;9.968;2022-11-21T01:40:14;17.80;21.10
939;DHT22;456;53.584;9.968;2022-11-21T01:43:11;17.80;21.10
939;DHT22;456;53.584;9.968;2022-11-21T01:45:58;17.80;21.10
939;DHT22;456;53.584;9.968;2022-11-21T01:56:55;17.80;21.20
939;DHT22;456;53.584;9.968;2022-11-21T02:00:15;17.70;20.70
939;DHT22;456;53.584;9.968;2022-11-21T02:02:18;17.70;20.60
939;DHT22;456;53.584;9.968;2022-11-21T02:04:45;17.80;21.10
939;DHT22;456;53.584;9.968;2022-11-21T02:07:12;17.80;21.30
939;DHT22;456;53.584;9.968;2022-11-21T02:09:41;17.70;20.80
939;DHT22;456;53.584;9.968;2022-11-21T02:12:30;17.80;21.00
939;DHT22;456;53.584;9.968;2022-11-21T02:14:54;17.70;21.20
939;DHT22;456;53.584;9.968;2022-11-21T02:17:21;17.70;21.20
939;DHT22;456;53.584;9.968;2022-11-21T02:22:38;17.80;21.40
939;DHT22;456;53.584;9.968;2022-11-21T02:27:42;17.80;20.90
939;DHT22;456;53.584;9.968;2022-11-21T02:30:09;17.80;20.70
939;DHT22;456;53.584;9.968;2022-11-21T02:32:39;17.80;20.70
939;DHT22;456;53.584;9.968;2022-11-21T02:35:05;17.80;21.20
939;DHT22;456;53.584;9.968;2022-11-21T02:37:32;17.80;20.70
939;DHT22;456;53.584;9.968;2022-11-21T02:40:05;17.80;20.70
939;DHT22;456;53.584;9.968;2022-11-21T02:42:45;17.80;20.50
939;DHT22;456;53.584;9.968;2022-11-21T02:45:20;17.80;20.60
939;DHT22;456;53.584;9.968;2022-11-21T02:47:48;17.80;20.70
939;DHT22;456;53.584;9.968;2022-11-21T02:50:22;17.80;20.90
939;DHT22;456;53.584;9.968;2022-11-21T02:52:50;17.80;20.80
939;DHT22;456;53.584;9.968;2022-11-21T02:55:16;17.80;20.60
939;DHT22;456;53.584;9.968;2022-11-21T02:57:41;17.80;20.80
939;DHT22;456;53.584;9.968;2022-11-21T03:00:09;17.80;20.90
939;DHT22;456;53.584;9.968;2022-11-21T03:02:35;17.80;20.70
939;DHT22;456;53.584;9.968;2022-11-21T03:05:02;17.80;20.80
939;DHT22;456;53.584;9.968;2022-11-21T03:07:28;17.80;20.40
939;DHT22;456;53.584;9.968;2022-11-21T03:09:53;17.80;20.60
939;DHT22;456;53.584;9.968;2022-11-21T03:12:19;17.80;20.40
939;DHT22;456;53.584;9.968;2022-11-21T03:14:45;17.70;20.40
939;DHT22;456;53.584;9.968;2022-11-21T03:17:10;17.80;20.60
939;DHT22;456;53.584;9.968;2022-11-21T03:19:36;17.70;20.40
939;DHT22;456;53.584;9.968;2022-11-21T03:22:01;17.70;21.30
939;DHT22;456;53.584;9.968;2022-11-21T03:24:27;17.70;20.60
939;DHT22;456;53.584;9.968;2022-11-21T03:26:52;17.70;20.70
939;DHT22;456;53.584;9.968;2022-11-21T03:29:18;17.70;20.70
939;DHT22;456;53.584;9.968;2022-11-21T03:31:43;17.70;20.60
939;DHT22;456;53.584;9.968;2022-11-21T03:34:09;17.70;20.80
939;DHT22;456;53.584;9.968;2022-11-21T03:36:35;17.70;20.30
939;DHT22;456;53.584;9.968;2022-11-21T03:39:01;17.70;20.70
939;DHT22;456;53.584;9.968;2022-11-21T03:41:26;17.70;20.70
939;DHT22;456;53.584;9.968;2022-11-21T03:43:59;17.70;20.60
939;DHT22;456;53.584;9.968;2022-11-21T03:46:26;17.70;20.60
939;DHT22;456;53.584;9.968;2022-11-21T03:48:51;17.70;20.60
939;DHT22;456;53.584;9.968;2022-11-21T03:51:17;17.70;20.50
939;DHT22;456;53.584;9.968;2022-11-21T03:53:43;17.70;20.30
939;DHT22;456;53.584;9.968;2022-11-21T03:56:09;17.70;20.40
939;DHT22;456;53.584;9.968;2022-11-21T03:58:34;17.70;20.30
939;DHT22;456;53.584;9.968;2022-11-21T04:01:00;17.80;20.40
939;DHT22;456;53.584;9.968;2022-11-21T04:03:26;17.80;20.30
939;DHT22;456;53.584;9.968;2022-11-21T04:05:51;17.80;20.20
939;DHT22;456;53.584;9.968;2022-11-21T04:08:17;17.80;20.40
939;DHT22;456;53.584;9.968;2022-11-21T04:10:46;17.80;20.40
939;DHT22;456;53.584;9.968;2022-11-21T04:13:12;17.70;20.30
939;DHT22;456;53.584;9.968;2022-11-21T04:15:40;17.70;20.40
939;DHT22;456;53.584;9.968;2022-11-21T04:18:05;17.70;20.30
939;DHT22;456;53.584;9.968;2022-11-21T04:20:31;17.70;20.30
939;DHT22;456;53.584;9.968;2022-11-21T04:22:57;17.70;20.30
939;DHT22;456;53.584;9.968;2022-11-21T04:25:22;17.70;20.30
939;DHT22;456;53.584;9.968;2022-11-21T04:27:48;17.70;20.30
939;DHT22;456;53.584;9.968;2022-11-21T04:30:14;17.70;19.90
939;DHT22;456;53.584;9.968;2022-11-21T04:32:39;17.70;20.10
939;DHT22;456;53.584;9.968;2022-11-21T04:35:05;17.70;20.00
939;DHT22;456;53.584;9.968;2022-11-21T04:37:31;17.70;19.70
939;DHT22;456;53.584;9.968;2022-11-21T04:39:56;17.70;20.00
939;DHT22;456;53.584;9.968;2022-11-21T04:42:22;17.70;19.70
939;DHT22;456;53.584;9.968;2022-11-21T04:44:48;17.70;20.30
939;DHT22;456;53.584;9.968;2022-11-21T04:47:13;17.70;20.30
939;DHT22;456;53.584;9.968;2022-11-21T04:49:39;17.70;20.40
939;DHT22;456;53.584;9.968;2022-11-21T04:52:04;17.70;20.30
939;DHT22;456;53.584;9.968;2022-11-21T04:54:30;17.70;20.30
939;DHT22;456;53.584;9.968;2022-11-21T04:56:56;17.70;20.00
939;DHT22;456;53.584;9.968;2022-11-21T04:59:21;17.70;20.30
939;DHT22;456;53.584;9.968;2022-11-21T05:01:47;17.70;20.30
939;DHT22;456;53.584;9.968;2022-11-21T05:04:12;17.70;20.20
939;DHT22;456;53.584;9.968;2022-11-21T05:06:38;17.70;20.20
939;DHT22;456;53.584;9.968;2022-11-21T05:09:03;17.80;20.10
939;DHT22;456;53.584;9.968;2022-11-21T05:11:29;17.70;19.90
939;DHT22;456;53.584;9.968;2022-11-21T05:14:13;17.80;19.90
939;DHT22;456;53.584;9.968;2022-11-21T05:16:40;17.80;19.70
939;DHT22;456;53.584;9.968;2022-11-21T05:19:05;17.80;19.60
939;DHT22;456;53.584;9.968;2022-11-21T05:21:32;17.80;19.50
939;DHT22;456;53.584;9.968;2022-11-21T05:23:57;17.80;19.50
939;DHT22;456;53.584;9.968;2022-11-21T05:26:23;17.80;19.50
939;DHT22;456;53.584;9.968;2022-11-21T05:28:48;17.80;19.50
939;DHT22;456;53.584;9.968;2022-11-21T05:31:14;17.80;19.60
939;DHT22;456;53.584;9.968;2022-11-21T05:33:41;17.80;19.60
939;DHT22;456;53.584;9.968;2022-11-21T05:36:06;17.80;20.20
939;DHT22;456;53.584;9.968;2022-11-21T05:38:32;17.80;19.60
939;DHT22;456;53.584;9.968;2022-11-21T05:40:58;17.80;19.40
939;DHT22;456;53.584;9.968;2022-11-21T05:43:23;17.80;19.30
939;DHT22;456;53.584;9.968;2022-11-21T05:46:07;17.80;19.30
939;DHT22;456;53.584;9.968;2022-11-21T05:48:33;17.80;19.30
939;DHT22;456;53.584;9.968;2022-11-21T05:51:02;17.90;19.40
939;DHT22;456;53.584;9.968;2022-11-21T05:53:27;17.80;19.40
939;DHT22;456;53.584;9.968;2022-11-21T05:55:53;17.90;19.50
939;DHT22;456;53.584;9.968;2022-11-21T05:58:19;17.90;19.60
939;DHT22;456;53.584;9.968;2022-11-21T06:00:44;17.90;19.60
939;DHT22;456;53.584;9.968;2022-11-21T06:03:10;17.80;20.40
939;DHT22;456;53.584;9.968;2022-11-21T06:05:56;17.80;20.00
939;DHT22;456;53.584;9.968;2022-11-21T06:08:22;17.80;19.80
939;DHT22;456;53.584;9.968;2022-11-21T06:10:47;17.80;19.70
939;DHT22;456;53.584;9.968;2022-11-21T06:13:13;17.80;19.70
939;DHT22;456;53.584;9.968;2022-11-21T06:15:49;17.80;19.60
939;DHT22;456;53.584;9.968;2022-11-21T06:18:16;17.80;19.60
939;DHT22;456;53.584;9.968;2022-11-21T06:20:41;17.90;19.70
939;DHT22;456;53.584;9.968;2022-11-21T06:23:07;17.90;19.70
939;DHT22;456;53.584;9.968;2022-11-21T06:25:32;17.90;19.70
939;DHT22;456;53.584;9.968;2022-11-21T06:27:59;17.90;19.60
939;DHT22;456;53.584;9.968;2022-11-21T06:30:24;17.90;19.60
939;DHT22;456;53.584;9.968;2022-11-21T06:32:50;17.90;19.60
939;DHT22;456;53.584;9.968;2022-11-21T06:35:15;17.90;19.60
939;DHT22;456;53.584;9.968;2022-11-21T06:37:41;17.80;19.60
939;DHT22;456;53.584;9.968;2022-11-21T06:40:07;17.90;19.70
939;DHT22;456;53.584;9.968;2022-11-21T06:42:33;17.90;19.60
939;DHT22;456;53.584;9.968;2022-11-21T06:44:58;17.90;19.70
939;DHT22;456;53.584;9.968;2022-11-21T06:47:25;17.90;19.70
939;DHT22;456;53.584;9.968;2022-11-21T06:49:50;17.90;19.70
939;DHT22;456;53.584;9.968;2022-11-21T06:52:16;17.90;19.60
939;DHT22;456;53.584;9.968;2022-11-21T06:54:41;17.90;19.60
939;DHT22;456;53.584;9.968;2022-11-21T06:57:07;17.90;19.70
939;DHT22;456;53.584;9.968;2022-11-21T06:59:32;17.90;19.60
939;DHT22;456;53.584;9.968;2022-11-21T07:01:59;17.90;20.10
939;DHT22;456;53.584;9.968;2022-11-21T07:04:24;17.90;19.60
939;DHT22;456;53.584;9.968;2022-11-21T07:06:50;17.90;19.60
939;DHT22;456;53.584;9.968;2022-11-21T07:09:15;17.90;19.60
939;DHT22;456;53.584;9.968;2022-11-21T07:11:42;17.90;19.60
939;DHT22;456;53.584;9.968;2022-11-21T07:14:07;17.90;19.60
939;DHT22;456;53.584;9.968;2022-11-21T07:16:33;18.00;19.70
939;DHT22;456;53.584;9.968;2022-11-21T07:18:59;17.90;19.70
939;DHT22;456;53.584;9.968;2022-11-21T07:21:25;18.00;19.70
939;DHT22;456;53.584;9.968;2022-11-21T07:23:50;18.00;19.80
939;DHT22;456;53.584;9.968;2022-11-21T07:26:16;17.90;19.70
939;DHT22;456;53.584;9.968;2022-11-21T07:28:42;18.00;19.90
939;DHT22;456;53.584;9.968;2022-11-21T07:31:08;17.90;19.70
939;DHT22;456;53.584;9.968;2022-11-21T07:33:34;17.90;19.80
939;DHT22;456;53.584;9.968;2022-11-21T07:36:02;17.90;19.90
939;DHT22;456;53.584;9.968;2022-11-21T07:38:27;17.90;19.90
939;DHT22;456;53.584;9.968;2022-11-21T07:40:55;17.90;19.90
939;DHT22;456;53.584;9.968;2022-11-21T07:43:21;17.90;20.00
939;DHT22;456;53.584;9.968;2022-11-21T07:45:47;17.90;19.90
939;DHT22;456;53.584;9.968;2022-11-21T07:48:12;17.90;19.90
939;DHT22;456;53.584;9.968;2022-11-21T07:50:38;17.90;19.80
939;DHT22;456;53.584;9.968;2022-11-21T07:53:05;17.90;19.80
939;DHT22;456;53.584;9.968;2022-11-21T07:55:32;17.90;19.90
939;DHT22;456;53.584;9.968;2022-11-21T07:58:02;17.90;19.90
939;DHT22;456;53.584;9.968;2022-11-21T08:00:29;17.90;19.80
939;DHT22;456;53.584;9.968;2022-11-21T08:02:56;17.90;19.80
939;DHT22;456;53.584;9.968;2022-11-21T08:05:22;17.90;19.80
939;DHT22;456;53.584;9.968;2022-11-21T08:07:48;17.80;19.80
939;DHT22;456;53.584;9.968;2022-11-21T08:10:15;17.90;19.90
939;DHT22;456;53.584;9.968;2022-11-21T08:12:41;17.90;19.90
939;DHT22;456;53.584;9.968;2022-11-21T08:15:06;17.90;19.80
939;DHT22;456;53.584;9.968;2022-11-21T08:17:33;17.80;19.70
939;DHT22;456;53.584;9.968;2022-11-21T08:19:58;17.90;19.90
939;DHT22;456;53.584;9.968;2022-11-21T08:22:25;17.90;19.80
939;DHT22;456;53.584;9.968;2022-11-21T08:24:51;17.80;19.80
939;DHT22;456;53.584;9.968;2022-11-21T08:27:18;17.90;19.70
939;DHT22;456;53.584;9.968;2022-11-21T08:29:45;17.80;19.80
939;DHT22;456;53.584;9.968;2022-11-21T08:32:11;17.80;20.20
939;DHT22;456;53.584;9.968;2022-11-21T08:34:36;17.80;20.00
939;DHT22;456;53.584;9.968;2022-11-21T08:37:02;17.90;19.90
939;DHT22;456;53.584;9.968;2022-11-21T08:39:28;17.90;19.80
939;DHT22;456;53.584;9.968;2022-11-21T08:41:56;17.90;19.70
939;DHT22;456;53.584;9.968;2022-11-21T08:44:33;17.90;20.00
939;DHT22;456;53.584;9.968;2022-11-21T08:47:00;17.90;20.00
939;DHT22;456;53.584;9.968;2022-11-21T08:49:25;17.90;19.70
939;DHT22;456;53.584;9.968;2022-11-21T08:51:51;17.90;19.60
939;DHT22;456;53.584;9.968;2022-11-21T08:54:19;17.90;19.70
939;DHT22;456;53.584;9.968;2022-11-21T08:56:44;17.90;19.70
939;DHT22;456;53.584;9.968;2022-11-21T08:59:10;17.90;19.60
939;DHT22;456;53.584;9.968;2022-11-21T09:01:36;17.90;19.60
939;DHT22;456;53.584;9.968;2022-11-21T09:04:05;17.90;19.70
939;DHT22;456;53.584;9.968;2022-11-21T09:06:31;17.90;19.70
939;DHT22;456;53.584;9.968;2022-11-21T09:08:57;17.90;19.70
939;DHT22;456;53.584;9.968;2022-11-21T09:11:23;17.90;19.70
939;DHT22;456;53.584;9.968;2022-11-21T09:13:52;17.90;19.60
939;DHT22;456;53.584;9.968;2022-11-21T09:16:37;17.90;19.80
939;DHT22;456;53.584;9.968;2022-11-21T09:19:22;17.90;19.70
939;DHT22;456;53.584;9.968;2022-11-21T09:21:51;17.90;19.70
939;DHT22;456;53.584;9.968;2022-11-21T09:24:17;17.90;19.70
939;DHT22;456;53.584;9.968;2022-11-21T09:26:44;17.90;19.80
939;DHT22;456;53.584;9.968;2022-11-21T09:29:09;17.90;19.80
939;DHT22;456;53.584;9.968;2022-11-21T09:31:38;17.90;19.80
939;DHT22;456;53.584;9.968;2022-11-21T09:34:04;17.90;19.80
939;DHT22;456;53.584;9.968;2022-11-21T09:36:29;17.90;19.80
939;DHT22;456;53.584;9.968;2022-11-21T09:38:55;17.80;19.90
939;DHT22;456;53.584;9.968;2022-11-21T09:49:44;17.80;19.80
939;DHT22;456;53.584;9.968;2022-11-21T09:52:14;17.90;19.80
939;DHT22;456;53.584;9.968;2022-11-21T09:54:54;17.80;19.90
939;DHT22;456;53.584;9.968;2022-11-21T09:57:23;17.80;19.70
939;DHT22;456;53.584;9.968;2022-11-21T09:59:50;17.80;19.90
939;DHT22;456;53.584;9.968;2022-11-21T10:02:18;17.80;19.80
939;DHT22;456;53.584;9.968;2022-11-21T10:04:46;17.90;19.90
939;DHT22;456;53.584;9.968;2022-11-21T10:07:30;17.80;19.80
939;DHT22;456;53.584;9.968;2022-11-21T10:26:49;17.90;19.90
939;DHT22;456;53.584;9.968;2022-11-21T10:29:20;17.90;19.90
939;DHT22;456;53.584;9.968;2022-11-21T10:31:48;17.90;19.90
939;DHT22;456;53.584;9.968;2022-11-21T10:34:18;17.90;19.90
939;DHT22;456;53.584;9.968;2022-11-21T10:36:48;17.90;19.90
939;DHT22;456;53.584;9.968;2022-11-21T10:39:23;17.90;19.90
939;DHT22;456;53.584;9.968;2022-11-21T10:42:29;17.90;19.90
939;DHT22;456;53.584;9.968;2022-11-21T10:44:58;17.90;19.80
939;DHT22;456;53.584;9.968;2022-11-21T10:47:48;17.90;19.80
939;DHT22;456;53.584;9.968;2022-11-21T10:50:37;17.90;19.80
939;DHT22;456;53.584;9.968;2022-11-21T10:56:02;17.90;19.90
939;DHT22;456;53.584;9.968;2022-11-21T10:58:40;17.90;19.90
939;DHT22;456;53.584;9.968;2022-11-21T11:06:39;17.80;19.60
939;DHT22;456;53.584;9.968;2022-11-21T11:09:05;17.80;19.70
939;DHT22;456;53.584;9.968;2022-11-21T11:11:32;17.80;19.70
939;DHT22;456;53.584;9.968;2022-11-21T11:14:04;17.80;19.70
939;DHT22;456;53.584;9.968;2022-11-21T11:16:31;17.80;19.60
939;DHT22;456;53.584;9.968;2022-11-21T11:19:01;17.80;19.70
939;DHT22;456;53.584;9.968;2022-11-21T11:29:17;17.90;19.90
939;DHT22;456;53.584;9.968;2022-11-21T11:31:49;17.90;20.00
939;DHT22;456;53.584;9.968;2022-11-21T11:34:16;17.90;20.00
939;DHT22;456;53.584;9.968;2022-11-21T11:36:54;17.80;20.00
939;DHT22;456;53.584;9.968;2022-11-21T11:48:36;17.90;20.00
939;DHT22;456;53.584;9.968;2022-11-21T11:51:12;17.90;20.00
939;DHT22;456;53.584;9.968;2022-11-21T11:53:46;17.90;20.00
939;DHT22;456;53.584;9.968;2022-11-21T11:56:27;17.90;20.00
939;DHT22;456;53.584;9.968;2022-11-21T11:59:06;17.90;20.10
939;DHT22;456;53.584;9.968;2022-11-21T12:02:02;17.90;20.00
939;DHT22;456;53.584;9.968;2022-11-21T12:04:48;17.90;20.00
939;DHT22;456;53.584;9.968;2022-11-21T12:07:37;17.90;19.90
939;DHT22;456;53.584;9.968;2022-11-21T12:12:47;17.90;20.00
939;DHT22;456;53.584;9.968;2022-11-21T12:15:29;17.80;20.10
939;DHT22;456;53.584;9.968;2022-11-21T12:18:25;17.80;20.20
939;DHT22;456;53.584;9.968;2022-11-21T12:23:26;17.80;20.10
939;DHT22;456;53.584;9.968;2022-11-21T12:31:22;17.80;20.10
939;DHT22;456;53.584;9.968;2022-11-21T12:36:47;17.80;19.80
939;DHT22;456;53.584;9.968;2022-11-21T12:45:29;17.80;20.80
939;DHT22;456;53.584;9.968;2022-11-21T12:48:18;17.90;20.30
939;DHT22;456;53.584;9.968;2022-11-21T12:57:10;17.90;20.20
939;DHT22;456;53.584;9.968;2022-11-21T12:59:58;17.90;20.30
939;DHT22;456;53.584;9.968;2022-11-21T13:05:40;17.90;20.20
939;DHT22;456;53.584;9.968;2022-11-21T13:08:12;17.90;20.20
939;DHT22;456;53.584;9.968;2022-11-21T13:10:45;17.90;20.20
939;DHT22;456;53.584;9.968;2022-11-21T13:13:31;17.90;20.20
939;DHT22;456;53.584;9.968;2022-11-21T13:16:21;17.80;19.90
939;DHT22;456;53.584;9.968;2022-11-21T13:21:42;17.80;20.30
939;DHT22;456;53.584;9.968;2022-11-21T13:24:08;17.90;20.20
939;DHT22;456;53.584;9.968;2022-11-21T13:29:11;17.80;20.10
939;DHT22;456;53.584;9.968;2022-11-21T13:31:39;17.90;20.30
939;DHT22;456;53.584;9.968;2022-11-21T13:36:57;17.80;20.10
939;DHT22;456;53.584;9.968;2022-11-21T13:44:38;17.90;20.00
939;DHT22;456;53.584;9.968;2022-11-21T13:52:28;17.80;20.00
939;DHT22;456;53.584;9.968;2022-11-21T14:02:36;17.90;19.90
939;DHT22;456;53.584;9.968;2022-11-21T14:08:13;17.90;20.20
939;DHT22;456;53.584;9.968;2022-11-21T14:10:41;17.90;20.50
939;DHT22;456;53.584;9.968;2022-11-21T14:13:19;17.90;20.40
939;DHT22;456;53.584;9.968;2022-11-21T14:16:09;17.90;20.40
939;DHT22;456;53.584;9.968;2022-11-21T14:18:42;17.90;20.40
939;DHT22;456;53.584;9.968;2022-11-21T14:21:27;17.90;20.40
939;DHT22;456;53.584;9.968;2022-11-21T14:23:56;17.90;20.40
939;DHT22;456;53.584;9.968;2022-11-21T14:26:23;17.90;20.50
939;DHT22;456;53.584;9.968;2022-11-21T14:28:50;17.90;20.40
939;DHT22;456;53.584;9.968;2022-11-21T14:31:17;17.90;20.40
939;DHT22;456;53.584;9.968;2022-11-21T14:33:46;17.90;20.40
939;DHT22;456;53.584;9.968;2022-11-21T14:36:26;17.90;20.40
939;DHT22;456;53.584;9.968;2022-11-21T14:38:58;18.00;20.50
939;DHT22;456;53.584;9.968;2022-11-21T14:41:27;17.90;20.40
939;DHT22;456;53.584;9.968;2022-11-21T14:46:28;17.90;20.50
939;DHT22;456;53.584;9.968;2022-11-21T14:48:54;18.00;20.50
939;DHT22;456;53.584;9.968;2022-11-21T14:51:23;18.00;20.50
939;DHT22;456;53.584;9.968;2022-11-21T14:53:50;18.00;20.50
939;DHT22;456;53.584;9.968;2022-11-21T14:56:29;18.00;20.50
939;DHT22;456;53.584;9.968;2022-11-21T14:58:57;18.00;20.50
939;DHT22;456;53.584;9.968;2022-11-21T15:01:33;18.00;20.50
939;DHT22;456;53.584;9.968;2022-11-21T15:04:03;17.90;20.40
939;DHT22;456;53.584;9.968;2022-11-21T15:06:30;18.00;20.50
939;DHT22;456;53.584;9.968;2022-11-21T15:09:04;17.90;21.00
939;DHT22;456;53.584;9.968;2022-11-21T15:14:05;18.00;20.50
939;DHT22;456;53.584;9.968;2022-11-21T15:16:32;18.00;20.50
939;DHT22;456;53.584;9.968;2022-11-21T15:18:58;18.00;20.90
939;DHT22;456;53.584;9.968;2022-11-21T15:21:23;18.00;20.50
939;DHT22;456;53.584;9.968;2022-11-21T15:23:49;18.00;20.50
939;DHT22;456;53.584;9.968;2022-11-21T15:26:32;18.00;20.50
939;DHT22;456;53.584;9.968;2022-11-21T15:29:00;18.00;20.50
939;DHT22;456;53.584;9.968;2022-11-21T15:31:26;18.00;20.50
939;DHT22;456;53.584;9.968;2022-11-21T15:34:03;18.00;20.50
939;DHT22;456;53.584;9.968;2022-11-21T15:36:30;18.00;20.50
939;DHT22;456;53.584;9.968;2022-11-21T15:46:32;18.00;20.50
939;DHT22;456;53.584;9.968;2022-11-21T15:49:00;18.00;20.50
939;DHT22;456;53.584;9.968;2022-11-21T15:51:35;18.00;20.50
939;DHT22;456;53.584;9.968;2022-11-21T15:54:01;18.00;20.50
939;DHT22;456;53.584;9.968;2022-11-21T15:56:27;18.00;20.50
939;DHT22;456;53.584;9.968;2022-11-21T15:58:52;18.00;20.20
939;DHT22;456;53.584;9.968;2022-11-21T16:01:20;18.00;20.50
939;DHT22;456;53.584;9.968;2022-11-21T16:03:57;18.00;20.50
939;DHT22;456;53.584;9.968;2022-11-21T16:06:23;18.00;20.50
939;DHT22;456;53.584;9.968;2022-11-21T16:08:49;18.00;20.50
939;DHT22;456;53.584;9.968;2022-11-21T16:13:54;18.00;20.50
939;DHT22;456;53.584;9.968;2022-11-21T16:16:22;18.00;20.50
939;DHT22;456;53.584;9.968;2022-11-21T16:18:48;18.00;20.50
939;DHT22;456;53.584;9.968;2022-11-21T16:21:14;18.00;20.50
939;DHT22;456;53.584;9.968;2022-11-21T16:23:40;18.00;20.50
939;DHT22;456;53.584;9.968;2022-11-21T16:26:07;18.00;20.50
939;DHT22;456;53.584;9.968;2022-11-21T16:28:33;18.00;20.50
939;DHT22;456;53.584;9.968;2022-11-21T16:30:59;18.00;20.50
939;DHT22;456;53.584;9.968;2022-11-21T16:33:27;17.90;20.50
939;DHT22;456;53.584;9.968;2022-11-21T16:35:52;18.00;20.50
939;DHT22;456;53.584;9.968;2022-11-21T16:38:28;17.90;20.40
939;DHT22;456;53.584;9.968;2022-11-21T16:41:02;17.90;20.50
939;DHT22;456;53.584;9.968;2022-11-21T16:43:29;18.00;20.50
939;DHT22;456;53.584;9.968;2022-11-21T16:46:00;18.00;20.50
939;DHT22;456;53.584;9.968;2022-11-21T16:48:30;17.90;20.40
939;DHT22;456;53.584;9.968;2022-11-21T16:50:57;18.00;20.50
939;DHT22;456;53.584;9.968;2022-11-21T16:53:32;18.00;20.50
939;DHT22;456;53.584;9.968;2022-11-21T16:56:01;18.00;20.50
939;DHT22;456;53.584;9.968;2022-11-21T16:58:26;18.00;20.60
939;DHT22;456;53.584;9.968;2022-11-21T17:00:52;18.00;21.10
939;DHT22;456;53.584;9.968;2022-11-21T17:03:18;18.00;20.50
939;DHT22;456;53.584;9.968;2022-11-21T17:05:58;18.00;20.50
939;DHT22;456;53.584;9.968;2022-11-21T17:08:23;18.00;20.50
939;DHT22;456;53.584;9.968;2022-11-21T17:10:49;18.00;20.60
939;DHT22;456;53.584;9.968;2022-11-21T17:13:15;18.00;20.50
939;DHT22;456;53.584;9.968;2022-11-21T17:15:40;18.00;20.50
939;DHT22;456;53.584;9.968;2022-11-21T17:18:06;18.00;20.60
939;DHT22;456;53.584;9.968;2022-11-21T17:20:32;18.00;20.60
939;DHT22;456;53.584;9.968;2022-11-21T17:22:57;18.00;20.50
939;DHT22;456;53.584;9.968;2022-11-21T17:25:23;18.00;20.50
939;DHT22;456;53.584;9.968;2022-11-21T17:27:48;18.00;20.50
939;DHT22;456;53.584;9.968;2022-11-21T17:30:14;18.00;20.50
939;DHT22;456;53.584;9.968;2022-11-21T17:32:40;18.00;20.50
939;DHT22;456;53.584;9.968;2022-11-21T17:35:06;18.00;20.60
939;DHT22;456;53.584;9.968;2022-11-21T17:37:32;18.00;20.50
939;DHT22;456;53.584;9.968;2022-11-21T17:39:57;18.00;20.50
939;DHT22;456;53.584;9.968;2022-11-21T17:42:23;18.00;20.50
939;DHT22;456;53.584;9.968;2022-11-21T17:44:51;18.00;20.50
939;DHT22;456;53.584;9.968;2022-11-21T17:47:17;18.00;20.50
939;DHT22;456;53.584;9.968;2022-11-21T17:49:42;18.00;20.50
939;DHT22;456;53.584;9.968;2022-11-21T17:52:08;18.00;20.50
939;DHT22;456;53.584;9.968;2022-11-21T17:54:34;18.00;20.50
939;DHT22;456;53.584;9.968;2022-11-21T17:56:59;18.00;20.50
939;DHT22;456;53.584;9.968;2022-11-21T17:59:25;18.00;20.30
939;DHT22;456;53.584;9.968;2022-11-21T18:01:53;18.00;20.50
939;DHT22;456;53.584;9.968;2022-11-21T18:04:18;18.00;20.30
939;DHT22;456;53.584;9.968;2022-11-21T18:06:44;18.00;20.30
939;DHT22;456;53.584;9.968;2022-11-21T18:09:10;18.00;20.30
939;DHT22;456;53.584;9.968;2022-11-21T18:11:36;18.00;20.20
939;DHT22;456;53.584;9.968;2022-11-21T18:14:03;18.00;20.50
939;DHT22;456;53.584;9.968;2022-11-21T18:16:30;18.00;20.50
939;DHT22;456;53.584;9.968;2022-11-21T18:18:57;18.00;20.50
939;DHT22;456;53.584;9.968;2022-11-21T18:21:25;18.00;20.50
939;DHT22;456;53.584;9.968;2022-11-21T18:23:53;18.00;20.50
939;DHT22;456;53.584;9.968;2022-11-21T18:26:25;18.00;20.50
939;DHT22;456;53.584;9.968;2022-11-21T18:28:53;18.00;20.40
939;DHT22;456;53.584;9.968;2022-11-21T18:31:21;18.00;20.40
939;DHT22;456;53.584;9.968;2022-11-21T18:33:48;18.00;20.50
939;DHT22;456;53.584;9.968;2022-11-21T18:36:15;18.00;20.50
939;DHT22;456;53.584;9.968;2022-11-21T18:38:41;18.00;20.50
939;DHT22;456;53.584;9.968;2022-11-21T18:41:09;18.00;20.50
939;DHT22;456;53.584;9.968;2022-11-21T18:43:35;18.00;20.50
939;DHT22;456;53.584;9.968;2022-11-21T18:46:05;18.00;20.50
939;DHT22;456;53.584;9.968;2022-11-21T18:48:31;18.00;20.50
939;DHT22;456;53.584;9.968;2022-11-21T18:51:08;18.00;20.50
939;DHT22;456;53.584;9.968;2022-11-21T18:53:34;18.00;20.50
939;DHT22;456;53.584;9.968;2022-11-21T18:56:05;18.00;20.50
939;DHT22;456;53.584;9.968;2022-11-21T18:58:35;18.00;20.50
939;DHT22;456;53.584;9.968;2022-11-21T19:01:12;18.00;20.40